<?xml version="1.0" encoding="UTF-8" standalone="no" ?>
<gpx xmlns="http://www.topografix.com/GPX/1/1" xmlns:xsi="http://www.w3.org/2001/XMLSchema-instance" xsi:schemaLocation="http://www.topografix.com/GPX/1/1 http://www.topografix.com/GPX/1/1/gpx.xsd" version="1.1" creator="VisuGPX - https://www.visugpx.com">
  <metadata>
    <name>10918262-Carlit Marathon Officiel</name>
  </metadata>
  <trk>
    <name><![CDATA[10918262-Carlit Marathon Officiel]]></name>
    <extensions>
      <line xmlns="http://www.topografix.com/GPX/gpx_style/0/2">
        <color>0000FF</color>
        <width>4</width>
      </line>
    </extensions>
    <trkseg>
      <trkpt lat="42.50519" lon="2.04224">
        <ele>1761</ele>
        <time>2022-06-25T13:22:30Z</time>
      </trkpt>
      <trkpt lat="42.50521" lon="2.04419">
        <ele>1767</ele>
        <time>2022-06-25T13:23:42Z</time>
      </trkpt>
      <trkpt lat="42.50521" lon="2.04477">
        <ele>1771</ele>
        <time>2022-06-25T13:24:03Z</time>
      </trkpt>
      <trkpt lat="42.50571" lon="2.04518">
        <ele>1779</ele>
        <time>2022-06-25T13:24:33Z</time>
      </trkpt>
      <trkpt lat="42.50639" lon="2.04317">
        <ele>1788</ele>
        <time>2022-06-25T13:25:54Z</time>
      </trkpt>
      <trkpt lat="42.50722" lon="2.04342">
        <ele>1802</ele>
        <time>2022-06-25T13:26:37Z</time>
      </trkpt>
      <trkpt lat="42.50824" lon="2.04457">
        <ele>1813</ele>
        <time>2022-06-25T13:27:43Z</time>
      </trkpt>
      <trkpt lat="42.50938" lon="2.04445">
        <ele>1829</ele>
        <time>2022-06-25T13:28:40Z</time>
      </trkpt>
      <trkpt lat="42.50968" lon="2.04504">
        <ele>1827</ele>
        <time>2022-06-25T13:29:07Z</time>
      </trkpt>
      <trkpt lat="42.50986" lon="2.04572">
        <ele>1827</ele>
        <time>2022-06-25T13:29:33Z</time>
      </trkpt>
      <trkpt lat="42.51053" lon="2.04545">
        <ele>1835</ele>
        <time>2022-06-25T13:30:08Z</time>
      </trkpt>
      <trkpt lat="42.51074" lon="2.04519">
        <ele>1840</ele>
        <time>2022-06-25T13:30:23Z</time>
      </trkpt>
      <trkpt lat="42.51117" lon="2.0449">
        <ele>1845</ele>
        <time>2022-06-25T13:30:47Z</time>
      </trkpt>
      <trkpt lat="42.51127" lon="2.04442">
        <ele>1848</ele>
        <time>2022-06-25T13:31:05Z</time>
      </trkpt>
      <trkpt lat="42.51195" lon="2.04368">
        <ele>1844</ele>
        <time>2022-06-25T13:31:49Z</time>
      </trkpt>
      <trkpt lat="42.51203" lon="2.04243">
        <ele>1843</ele>
        <time>2022-06-25T13:32:35Z</time>
      </trkpt>
      <trkpt lat="42.51166" lon="2.0416">
        <ele>1847</ele>
        <time>2022-06-25T13:33:11Z</time>
      </trkpt>
      <trkpt lat="42.51186" lon="2.04049">
        <ele>1843</ele>
        <time>2022-06-25T13:33:53Z</time>
      </trkpt>
      <trkpt lat="42.51266" lon="2.0404">
        <ele>1843</ele>
        <time>2022-06-25T13:34:33Z</time>
      </trkpt>
      <trkpt lat="42.51279" lon="2.03953">
        <ele>1844</ele>
        <time>2022-06-25T13:35:06Z</time>
      </trkpt>
      <trkpt lat="42.51343" lon="2.03876">
        <ele>1850</ele>
        <time>2022-06-25T13:35:49Z</time>
      </trkpt>
      <trkpt lat="42.51479" lon="2.03786">
        <ele>1865</ele>
        <time>2022-06-25T13:37:04Z</time>
      </trkpt>
      <trkpt lat="42.51479" lon="2.03569">
        <ele>1861</ele>
        <time>2022-06-25T13:38:24Z</time>
      </trkpt>
      <trkpt lat="42.51452" lon="2.03342">
        <ele>1862</ele>
        <time>2022-06-25T13:39:49Z</time>
      </trkpt>
      <trkpt lat="42.51376" lon="2.03266">
        <ele>1869</ele>
        <time>2022-06-25T13:40:36Z</time>
      </trkpt>
      <trkpt lat="42.51352" lon="2.03217">
        <ele>1872</ele>
        <time>2022-06-25T13:40:58Z</time>
      </trkpt>
      <trkpt lat="42.51414" lon="2.03251">
        <ele>1875</ele>
        <time>2022-06-25T13:41:32Z</time>
      </trkpt>
      <trkpt lat="42.51488" lon="2.03163">
        <ele>1887</ele>
        <time>2022-06-25T13:42:21Z</time>
      </trkpt>
      <trkpt lat="42.51457" lon="2.03126">
        <ele>1890</ele>
        <time>2022-06-25T13:42:42Z</time>
      </trkpt>
      <trkpt lat="42.51506" lon="2.03008">
        <ele>1909</ele>
        <time>2022-06-25T13:43:31Z</time>
      </trkpt>
      <trkpt lat="42.516" lon="2.02732">
        <ele>1935</ele>
        <time>2022-06-25T13:45:24Z</time>
      </trkpt>
      <trkpt lat="42.51573" lon="2.02638">
        <ele>1930</ele>
        <time>2022-06-25T13:46:01Z</time>
      </trkpt>
      <trkpt lat="42.51815" lon="2.01718">
        <ele>1902</ele>
        <time>2022-06-25T13:52:01Z</time>
      </trkpt>
      <trkpt lat="42.51987" lon="2.01919">
        <ele>1950</ele>
        <time>2022-06-25T13:53:55Z</time>
      </trkpt>
      <trkpt lat="42.52101" lon="2.02013">
        <ele>1979</ele>
        <time>2022-06-25T13:55:01Z</time>
      </trkpt>
      <trkpt lat="42.52267" lon="2.02189">
        <ele>2006</ele>
        <time>2022-06-25T13:56:47Z</time>
      </trkpt>
      <trkpt lat="42.52307" lon="2.0235">
        <ele>2014</ele>
        <time>2022-06-25T13:57:50Z</time>
      </trkpt>
      <trkpt lat="42.52396" lon="2.02337">
        <ele>2023</ele>
        <time>2022-06-25T13:58:34Z</time>
      </trkpt>
      <trkpt lat="42.52466" lon="2.0228">
        <ele>2029</ele>
        <time>2022-06-25T13:59:15Z</time>
      </trkpt>
      <trkpt lat="42.52516" lon="2.02192">
        <ele>2035</ele>
        <time>2022-06-25T13:59:56Z</time>
      </trkpt>
      <trkpt lat="42.52705" lon="2.01994">
        <ele>2045</ele>
        <time>2022-06-25T14:01:56Z</time>
      </trkpt>
      <trkpt lat="42.5283" lon="2.0206">
        <ele>2048</ele>
        <time>2022-06-25T14:03:03Z</time>
      </trkpt>
      <trkpt lat="42.53216" lon="2.01672">
        <ele>2102</ele>
        <time>2022-06-25T14:07:03Z</time>
      </trkpt>
      <trkpt lat="42.53492" lon="2.0162">
        <ele>2205</ele>
        <time>2022-06-25T14:09:23Z</time>
      </trkpt>
      <trkpt lat="42.53573" lon="2.01539">
        <ele>2211</ele>
        <time>2022-06-25T14:10:13Z</time>
      </trkpt>
      <trkpt lat="42.53573" lon="2.01331">
        <ele>2199</ele>
        <time>2022-06-25T14:11:30Z</time>
      </trkpt>
      <trkpt lat="42.53841" lon="2.01162">
        <ele>2141</ele>
        <time>2022-06-25T14:13:58Z</time>
      </trkpt>
      <trkpt lat="42.53886" lon="2.01139">
        <ele>2130</ele>
        <time>2022-06-25T14:14:22Z</time>
      </trkpt>
      <trkpt lat="42.53963" lon="2.01116">
        <ele>2103</ele>
        <time>2022-06-25T14:15:01Z</time>
      </trkpt>
      <trkpt lat="42.54034" lon="2.01027">
        <ele>2076</ele>
        <time>2022-06-25T14:15:49Z</time>
      </trkpt>
      <trkpt lat="42.54149" lon="2.01031">
        <ele>2051</ele>
        <time>2022-06-25T14:16:47Z</time>
      </trkpt>
      <trkpt lat="42.54514" lon="2.00586">
        <ele>1955</ele>
        <time>2022-06-25T14:20:53Z</time>
      </trkpt>
      <trkpt lat="42.5457" lon="2.00401">
        <ele>1950</ele>
        <time>2022-06-25T14:22:06Z</time>
      </trkpt>
      <trkpt lat="42.54581" lon="2.00172">
        <ele>1972</ele>
        <time>2022-06-25T14:23:31Z</time>
      </trkpt>
      <trkpt lat="42.54668" lon="1.99927">
        <ele>2007</ele>
        <time>2022-06-25T14:25:11Z</time>
      </trkpt>
      <trkpt lat="42.54627" lon="1.99537">
        <ele>2117</ele>
        <time>2022-06-25T14:27:36Z</time>
      </trkpt>
      <trkpt lat="42.54548" lon="1.98988">
        <ele>2152</ele>
        <time>2022-06-25T14:31:03Z</time>
      </trkpt>
      <trkpt lat="42.54929" lon="1.98241">
        <ele>2143</ele>
        <time>2022-06-25T14:36:38Z</time>
      </trkpt>
      <trkpt lat="42.5502" lon="1.98254">
        <ele>2139</ele>
        <time>2022-06-25T14:37:23Z</time>
      </trkpt>
      <trkpt lat="42.55103" lon="1.98174">
        <ele>2135</ele>
        <time>2022-06-25T14:38:14Z</time>
      </trkpt>
      <trkpt lat="42.5525" lon="1.98078">
        <ele>2145</ele>
        <time>2022-06-25T14:39:36Z</time>
      </trkpt>
      <trkpt lat="42.55408" lon="1.98018">
        <ele>2152</ele>
        <time>2022-06-25T14:40:58Z</time>
      </trkpt>
      <trkpt lat="42.55616" lon="1.97872">
        <ele>2153</ele>
        <time>2022-06-25T14:42:55Z</time>
      </trkpt>
      <trkpt lat="42.55773" lon="1.98153">
        <ele>2164</ele>
        <time>2022-06-25T14:45:05Z</time>
      </trkpt>
      <trkpt lat="42.56022" lon="1.98065">
        <ele>2171</ele>
        <time>2022-06-25T14:47:14Z</time>
      </trkpt>
      <trkpt lat="42.56065" lon="1.97986">
        <ele>2175</ele>
        <time>2022-06-25T14:47:50Z</time>
      </trkpt>
      <trkpt lat="42.56161" lon="1.97816">
        <ele>2170</ele>
        <time>2022-06-25T14:49:09Z</time>
      </trkpt>
      <trkpt lat="42.56186" lon="1.9763">
        <ele>2171</ele>
        <time>2022-06-25T14:50:19Z</time>
      </trkpt>
      <trkpt lat="42.56248" lon="1.97551">
        <ele>2180</ele>
        <time>2022-06-25T14:51:01Z</time>
      </trkpt>
      <trkpt lat="42.56453" lon="1.97426">
        <ele>2185</ele>
        <time>2022-06-25T14:52:54Z</time>
      </trkpt>
      <trkpt lat="42.56512" lon="1.97439">
        <ele>2181</ele>
        <time>2022-06-25T14:53:24Z</time>
      </trkpt>
      <trkpt lat="42.56689" lon="1.973">
        <ele>2196</ele>
        <time>2022-06-25T14:55:06Z</time>
      </trkpt>
      <trkpt lat="42.56745" lon="1.97306">
        <ele>2195</ele>
        <time>2022-06-25T14:55:34Z</time>
      </trkpt>
      <trkpt lat="42.57006" lon="1.97097">
        <ele>2234</ele>
        <time>2022-06-25T14:58:06Z</time>
      </trkpt>
      <trkpt lat="42.5714" lon="1.97039">
        <ele>2239</ele>
        <time>2022-06-25T14:59:16Z</time>
      </trkpt>
      <trkpt lat="42.5731" lon="1.96887">
        <ele>2231</ele>
        <time>2022-06-25T15:00:58Z</time>
      </trkpt>
      <trkpt lat="42.57315" lon="1.96687">
        <ele>2239</ele>
        <time>2022-06-25T15:02:12Z</time>
      </trkpt>
      <trkpt lat="42.5727" lon="1.96608">
        <ele>2246</ele>
        <time>2022-06-25T15:02:49Z</time>
      </trkpt>
      <trkpt lat="42.5721" lon="1.96162">
        <ele>2296</ele>
        <time>2022-06-25T15:05:36Z</time>
      </trkpt>
      <trkpt lat="42.57221" lon="1.96038">
        <ele>2314</ele>
        <time>2022-06-25T15:06:22Z</time>
      </trkpt>
      <trkpt lat="42.57254" lon="1.95822">
        <ele>2351</ele>
        <time>2022-06-25T15:07:43Z</time>
      </trkpt>
      <trkpt lat="42.57259" lon="1.95737">
        <ele>2354</ele>
        <time>2022-06-25T15:08:14Z</time>
      </trkpt>
      <trkpt lat="42.57277" lon="1.95652">
        <ele>2350</ele>
        <time>2022-06-25T15:08:47Z</time>
      </trkpt>
      <trkpt lat="42.57299" lon="1.95598">
        <ele>2342</ele>
        <time>2022-06-25T15:09:10Z</time>
      </trkpt>
      <trkpt lat="42.5748" lon="1.95695">
        <ele>2339</ele>
        <time>2022-06-25T15:10:47Z</time>
      </trkpt>
      <trkpt lat="42.57587" lon="1.96183">
        <ele>2320</ele>
        <time>2022-06-25T15:13:55Z</time>
      </trkpt>
      <trkpt lat="42.57652" lon="1.96338">
        <ele>2317</ele>
        <time>2022-06-25T15:15:01Z</time>
      </trkpt>
      <trkpt lat="42.57681" lon="1.96441">
        <ele>2317</ele>
        <time>2022-06-25T15:15:41Z</time>
      </trkpt>
      <trkpt lat="42.57645" lon="1.96535">
        <ele>2313</ele>
        <time>2022-06-25T15:16:20Z</time>
      </trkpt>
      <trkpt lat="42.57616" lon="1.96541">
        <ele>2314</ele>
        <time>2022-06-25T15:16:35Z</time>
      </trkpt>
      <trkpt lat="42.57619" lon="1.96663">
        <ele>2309</ele>
        <time>2022-06-25T15:17:20Z</time>
      </trkpt>
      <trkpt lat="42.57556" lon="1.96915">
        <ele>2295</ele>
        <time>2022-06-25T15:18:58Z</time>
      </trkpt>
      <trkpt lat="42.57453" lon="1.97224">
        <ele>2243</ele>
        <time>2022-06-25T15:21:03Z</time>
      </trkpt>
      <trkpt lat="42.57391" lon="1.97291">
        <ele>2240</ele>
        <time>2022-06-25T15:21:43Z</time>
      </trkpt>
      <trkpt lat="42.57207" lon="1.97761">
        <ele>2225</ele>
        <time>2022-06-25T15:24:59Z</time>
      </trkpt>
      <trkpt lat="42.5702" lon="1.97925">
        <ele>2186</ele>
        <time>2022-06-25T15:26:50Z</time>
      </trkpt>
      <trkpt lat="42.56993" lon="1.97928">
        <ele>2184</ele>
        <time>2022-06-25T15:27:04Z</time>
      </trkpt>
      <trkpt lat="42.56863" lon="1.98077">
        <ele>2180</ele>
        <time>2022-06-25T15:28:29Z</time>
      </trkpt>
      <trkpt lat="42.56776" lon="1.98128">
        <ele>2181</ele>
        <time>2022-06-25T15:29:16Z</time>
      </trkpt>
      <trkpt lat="42.56743" lon="1.98232">
        <ele>2177</ele>
        <time>2022-06-25T15:29:58Z</time>
      </trkpt>
      <trkpt lat="42.56668" lon="1.98248">
        <ele>2164</ele>
        <time>2022-06-25T15:30:36Z</time>
      </trkpt>
      <trkpt lat="42.56589" lon="1.98267">
        <ele>2155</ele>
        <time>2022-06-25T15:31:16Z</time>
      </trkpt>
      <trkpt lat="42.56528" lon="1.98354">
        <ele>2150</ele>
        <time>2022-06-25T15:32:00Z</time>
      </trkpt>
      <trkpt lat="42.5648" lon="1.98418">
        <ele>2151</ele>
        <time>2022-06-25T15:32:34Z</time>
      </trkpt>
      <trkpt lat="42.5647" lon="1.98485">
        <ele>2149</ele>
        <time>2022-06-25T15:32:59Z</time>
      </trkpt>
      <trkpt lat="42.56434" lon="1.98521">
        <ele>2146</ele>
        <time>2022-06-25T15:33:22Z</time>
      </trkpt>
      <trkpt lat="42.56433" lon="1.98562">
        <ele>2142</ele>
        <time>2022-06-25T15:33:37Z</time>
      </trkpt>
      <trkpt lat="42.56337" lon="1.98643">
        <ele>2134</ele>
        <time>2022-06-25T15:34:33Z</time>
      </trkpt>
      <trkpt lat="42.56222" lon="1.98814">
        <ele>2112</ele>
        <time>2022-06-25T15:35:59Z</time>
      </trkpt>
      <trkpt lat="42.56111" lon="1.98942">
        <ele>2103</ele>
        <time>2022-06-25T15:37:12Z</time>
      </trkpt>
      <trkpt lat="42.56017" lon="1.99136">
        <ele>2084</ele>
        <time>2022-06-25T15:38:37Z</time>
      </trkpt>
      <trkpt lat="42.55985" lon="1.99264">
        <ele>2069</ele>
        <time>2022-06-25T15:39:27Z</time>
      </trkpt>
      <trkpt lat="42.56036" lon="1.99457">
        <ele>2066</ele>
        <time>2022-06-25T15:40:43Z</time>
      </trkpt>
      <trkpt lat="42.55995" lon="1.99613">
        <ele>2038</ele>
        <time>2022-06-25T15:41:44Z</time>
      </trkpt>
      <trkpt lat="42.56032" lon="1.99672">
        <ele>2040</ele>
        <time>2022-06-25T15:42:12Z</time>
      </trkpt>
      <trkpt lat="42.56034" lon="1.99787">
        <ele>2024</ele>
        <time>2022-06-25T15:42:55Z</time>
      </trkpt>
      <trkpt lat="42.56086" lon="1.9977">
        <ele>2025</ele>
        <time>2022-06-25T15:43:21Z</time>
      </trkpt>
      <trkpt lat="42.56206" lon="1.99691">
        <ele>2031</ele>
        <time>2022-06-25T15:44:28Z</time>
      </trkpt>
      <trkpt lat="42.56258" lon="1.99664">
        <ele>2031</ele>
        <time>2022-06-25T15:44:56Z</time>
      </trkpt>
      <trkpt lat="42.56376" lon="1.99606">
        <ele>2032</ele>
        <time>2022-06-25T15:45:59Z</time>
      </trkpt>
      <trkpt lat="42.56425" lon="1.99521">
        <ele>2043</ele>
        <time>2022-06-25T15:46:39Z</time>
      </trkpt>
      <trkpt lat="42.56593" lon="1.99558">
        <ele>2022</ele>
        <time>2022-06-25T15:48:04Z</time>
      </trkpt>
      <trkpt lat="42.56649" lon="1.99521">
        <ele>2024</ele>
        <time>2022-06-25T15:48:35Z</time>
      </trkpt>
      <trkpt lat="42.56669" lon="1.99467">
        <ele>2031</ele>
        <time>2022-06-25T15:48:57Z</time>
      </trkpt>
      <trkpt lat="42.5674" lon="1.99461">
        <ele>2024</ele>
        <time>2022-06-25T15:49:33Z</time>
      </trkpt>
      <trkpt lat="42.56772" lon="1.99406">
        <ele>2035</ele>
        <time>2022-06-25T15:49:59Z</time>
      </trkpt>
      <trkpt lat="42.56874" lon="1.99442">
        <ele>2027</ele>
        <time>2022-06-25T15:50:51Z</time>
      </trkpt>
      <trkpt lat="42.57125" lon="1.99239">
        <ele>2045</ele>
        <time>2022-06-25T15:53:17Z</time>
      </trkpt>
      <trkpt lat="42.57223" lon="1.99318">
        <ele>2032</ele>
        <time>2022-06-25T15:54:15Z</time>
      </trkpt>
      <trkpt lat="42.57312" lon="1.99248">
        <ele>2050</ele>
        <time>2022-06-25T15:55:06Z</time>
      </trkpt>
      <trkpt lat="42.57426" lon="1.99306">
        <ele>2034</ele>
        <time>2022-06-25T15:56:07Z</time>
      </trkpt>
      <trkpt lat="42.57634" lon="1.99412">
        <ele>2024</ele>
        <time>2022-06-25T15:57:58Z</time>
      </trkpt>
      <trkpt lat="42.578" lon="1.99385">
        <ele>2033</ele>
        <time>2022-06-25T15:59:22Z</time>
      </trkpt>
      <trkpt lat="42.57894" lon="1.99462">
        <ele>2042</ele>
        <time>2022-06-25T16:00:17Z</time>
      </trkpt>
      <trkpt lat="42.57979" lon="1.9954">
        <ele>2052</ele>
        <time>2022-06-25T16:01:08Z</time>
      </trkpt>
      <trkpt lat="42.58059" lon="1.99555">
        <ele>2055</ele>
        <time>2022-06-25T16:01:48Z</time>
      </trkpt>
      <trkpt lat="42.5813" lon="1.9953">
        <ele>2056</ele>
        <time>2022-06-25T16:02:25Z</time>
      </trkpt>
      <trkpt lat="42.58192" lon="1.99576">
        <ele>2051</ele>
        <time>2022-06-25T16:03:00Z</time>
      </trkpt>
      <trkpt lat="42.58226" lon="1.997">
        <ele>2047</ele>
        <time>2022-06-25T16:03:49Z</time>
      </trkpt>
      <trkpt lat="42.58214" lon="1.99846">
        <ele>2040</ele>
        <time>2022-06-25T16:04:43Z</time>
      </trkpt>
      <trkpt lat="42.58193" lon="1.99913">
        <ele>2036</ele>
        <time>2022-06-25T16:05:10Z</time>
      </trkpt>
      <trkpt lat="42.58221" lon="1.99926">
        <ele>2037</ele>
        <time>2022-06-25T16:05:25Z</time>
      </trkpt>
      <trkpt lat="42.58492" lon="1.99828">
        <ele>2085</ele>
        <time>2022-06-25T16:07:45Z</time>
      </trkpt>
      <trkpt lat="42.58655" lon="1.99558">
        <ele>2135</ele>
        <time>2022-06-25T16:09:54Z</time>
      </trkpt>
      <trkpt lat="42.58912" lon="1.99424">
        <ele>2193</ele>
        <time>2022-06-25T16:12:12Z</time>
      </trkpt>
      <trkpt lat="42.58984" lon="1.99206">
        <ele>2196</ele>
        <time>2022-06-25T16:13:40Z</time>
      </trkpt>
      <trkpt lat="42.59279" lon="1.99154">
        <ele>2244</ele>
        <time>2022-06-25T16:16:09Z</time>
      </trkpt>
      <trkpt lat="42.59424" lon="1.99021">
        <ele>2263</ele>
        <time>2022-06-25T16:17:36Z</time>
      </trkpt>
      <trkpt lat="42.59544" lon="1.98984">
        <ele>2261</ele>
        <time>2022-06-25T16:18:38Z</time>
      </trkpt>
      <trkpt lat="42.59694" lon="1.98872">
        <ele>2265</ele>
        <time>2022-06-25T16:20:03Z</time>
      </trkpt>
      <trkpt lat="42.59855" lon="1.98854">
        <ele>2272</ele>
        <time>2022-06-25T16:21:24Z</time>
      </trkpt>
      <trkpt lat="42.5998" lon="1.98763">
        <ele>2278</ele>
        <time>2022-06-25T16:22:35Z</time>
      </trkpt>
      <trkpt lat="42.60143" lon="1.98751">
        <ele>2282</ele>
        <time>2022-06-25T16:23:57Z</time>
      </trkpt>
      <trkpt lat="42.602" lon="1.98785">
        <ele>2290</ele>
        <time>2022-06-25T16:24:28Z</time>
      </trkpt>
      <trkpt lat="42.60208" lon="1.98854">
        <ele>2299</ele>
        <time>2022-06-25T16:24:54Z</time>
      </trkpt>
      <trkpt lat="42.60161" lon="1.99406">
        <ele>2290</ele>
        <time>2022-06-25T16:28:19Z</time>
      </trkpt>
      <trkpt lat="42.60096" lon="1.99558">
        <ele>2270</ele>
        <time>2022-06-25T16:29:23Z</time>
      </trkpt>
      <trkpt lat="42.60054" lon="1.99533">
        <ele>2267</ele>
        <time>2022-06-25T16:29:46Z</time>
      </trkpt>
      <trkpt lat="42.59967" lon="1.99728">
        <ele>2252</ele>
        <time>2022-06-25T16:31:10Z</time>
      </trkpt>
      <trkpt lat="42.59696" lon="1.99837">
        <ele>2232</ele>
        <time>2022-06-25T16:33:32Z</time>
      </trkpt>
      <trkpt lat="42.59618" lon="1.99934">
        <ele>2224</ele>
        <time>2022-06-25T16:34:25Z</time>
      </trkpt>
      <trkpt lat="42.59477" lon="2.00593">
        <ele>2184</ele>
        <time>2022-06-25T16:38:37Z</time>
      </trkpt>
      <trkpt lat="42.59419" lon="2.00665">
        <ele>2173</ele>
        <time>2022-06-25T16:39:17Z</time>
      </trkpt>
      <trkpt lat="42.59361" lon="2.00705">
        <ele>2155</ele>
        <time>2022-06-25T16:39:49Z</time>
      </trkpt>
      <trkpt lat="42.59285" lon="2.00674">
        <ele>2143</ele>
        <time>2022-06-25T16:40:29Z</time>
      </trkpt>
      <trkpt lat="42.59229" lon="2.01017">
        <ele>2131</ele>
        <time>2022-06-25T16:42:38Z</time>
      </trkpt>
      <trkpt lat="42.59002" lon="2.01199">
        <ele>2120</ele>
        <time>2022-06-25T16:44:50Z</time>
      </trkpt>
      <trkpt lat="42.58912" lon="2.00942">
        <ele>2115</ele>
        <time>2022-06-25T16:46:35Z</time>
      </trkpt>
      <trkpt lat="42.58749" lon="2.00966">
        <ele>2123</ele>
        <time>2022-06-25T16:47:57Z</time>
      </trkpt>
      <trkpt lat="42.5872" lon="2.00905">
        <ele>2122</ele>
        <time>2022-06-25T16:48:24Z</time>
      </trkpt>
      <trkpt lat="42.58637" lon="2.00871">
        <ele>2127</ele>
        <time>2022-06-25T16:49:07Z</time>
      </trkpt>
      <trkpt lat="42.58542" lon="2.00963">
        <ele>2136</ele>
        <time>2022-06-25T16:50:06Z</time>
      </trkpt>
      <trkpt lat="42.58526" lon="2.01049">
        <ele>2139</ele>
        <time>2022-06-25T16:50:38Z</time>
      </trkpt>
      <trkpt lat="42.58426" lon="2.01204">
        <ele>2159</ele>
        <time>2022-06-25T16:51:54Z</time>
      </trkpt>
      <trkpt lat="42.58333" lon="2.01203">
        <ele>2168</ele>
        <time>2022-06-25T16:52:41Z</time>
      </trkpt>
      <trkpt lat="42.58285" lon="2.01228">
        <ele>2174</ele>
        <time>2022-06-25T16:53:07Z</time>
      </trkpt>
      <trkpt lat="42.58241" lon="2.01217">
        <ele>2175</ele>
        <time>2022-06-25T16:53:29Z</time>
      </trkpt>
      <trkpt lat="42.58233" lon="2.01297">
        <ele>2184</ele>
        <time>2022-06-25T16:53:59Z</time>
      </trkpt>
      <trkpt lat="42.5817" lon="2.01278">
        <ele>2182</ele>
        <time>2022-06-25T16:54:31Z</time>
      </trkpt>
      <trkpt lat="42.57951" lon="2.01324">
        <ele>2190</ele>
        <time>2022-06-25T16:56:22Z</time>
      </trkpt>
      <trkpt lat="42.57766" lon="2.01385">
        <ele>2202</ele>
        <time>2022-06-25T16:57:57Z</time>
      </trkpt>
      <trkpt lat="42.5761" lon="2.01744">
        <ele>2198</ele>
        <time>2022-06-25T17:00:31Z</time>
      </trkpt>
      <trkpt lat="42.57429" lon="2.01837">
        <ele>2190</ele>
        <time>2022-06-25T17:02:08Z</time>
      </trkpt>
      <trkpt lat="42.57324" lon="2.01973">
        <ele>2188</ele>
        <time>2022-06-25T17:03:20Z</time>
      </trkpt>
      <trkpt lat="42.57172" lon="2.01979">
        <ele>2177</ele>
        <time>2022-06-25T17:04:36Z</time>
      </trkpt>
      <trkpt lat="42.56982" lon="2.02131">
        <ele>2170</ele>
        <time>2022-06-25T17:06:27Z</time>
      </trkpt>
      <trkpt lat="42.56881" lon="2.02268">
        <ele>2161</ele>
        <time>2022-06-25T17:07:38Z</time>
      </trkpt>
      <trkpt lat="42.56629" lon="2.0147">
        <ele>2133</ele>
        <time>2022-06-25T17:12:58Z</time>
      </trkpt>
      <trkpt lat="42.56584" lon="2.01309">
        <ele>2101</ele>
        <time>2022-06-25T17:14:02Z</time>
      </trkpt>
      <trkpt lat="42.56508" lon="2.01281">
        <ele>2082</ele>
        <time>2022-06-25T17:14:41Z</time>
      </trkpt>
      <trkpt lat="42.56101" lon="2.01752">
        <ele>1984</ele>
        <time>2022-06-25T17:19:09Z</time>
      </trkpt>
      <trkpt lat="42.5603" lon="2.01746">
        <ele>1963</ele>
        <time>2022-06-25T17:19:44Z</time>
      </trkpt>
      <trkpt lat="42.55998" lon="2.01773">
        <ele>1953</ele>
        <time>2022-06-25T17:20:03Z</time>
      </trkpt>
      <trkpt lat="42.55962" lon="2.01746">
        <ele>1942</ele>
        <time>2022-06-25T17:20:24Z</time>
      </trkpt>
      <trkpt lat="42.5594" lon="2.01603">
        <ele>1967</ele>
        <time>2022-06-25T17:21:18Z</time>
      </trkpt>
      <trkpt lat="42.55822" lon="2.01643">
        <ele>1944</ele>
        <time>2022-06-25T17:22:18Z</time>
      </trkpt>
      <trkpt lat="42.55737" lon="2.01621">
        <ele>1954</ele>
        <time>2022-06-25T17:23:02Z</time>
      </trkpt>
      <trkpt lat="42.55652" lon="2.015">
        <ele>1972</ele>
        <time>2022-06-25T17:24:03Z</time>
      </trkpt>
      <trkpt lat="42.55692" lon="2.01215">
        <ele>1985</ele>
        <time>2022-06-25T17:25:50Z</time>
      </trkpt>
      <trkpt lat="42.55692" lon="2.01057">
        <ele>1983</ele>
        <time>2022-06-25T17:26:49Z</time>
      </trkpt>
      <trkpt lat="42.55734" lon="2.00964">
        <ele>1989</ele>
        <time>2022-06-25T17:27:29Z</time>
      </trkpt>
      <trkpt lat="42.55686" lon="2.00847">
        <ele>1997</ele>
        <time>2022-06-25T17:28:18Z</time>
      </trkpt>
      <trkpt lat="42.55705" lon="2.00772">
        <ele>1998</ele>
        <time>2022-06-25T17:28:47Z</time>
      </trkpt>
      <trkpt lat="42.55656" lon="2.0071">
        <ele>1995</ele>
        <time>2022-06-25T17:29:21Z</time>
      </trkpt>
      <trkpt lat="42.55626" lon="2.00728">
        <ele>2000</ele>
        <time>2022-06-25T17:29:37Z</time>
      </trkpt>
      <trkpt lat="42.55636" lon="2.00784">
        <ele>2001</ele>
        <time>2022-06-25T17:29:58Z</time>
      </trkpt>
      <trkpt lat="42.55581" lon="2.00787">
        <ele>2010</ele>
        <time>2022-06-25T17:30:26Z</time>
      </trkpt>
      <trkpt lat="42.55532" lon="2.00925">
        <ele>2011</ele>
        <time>2022-06-25T17:31:23Z</time>
      </trkpt>
      <trkpt lat="42.55459" lon="2.00963">
        <ele>2011</ele>
        <time>2022-06-25T17:32:02Z</time>
      </trkpt>
      <trkpt lat="42.55425" lon="2.00953">
        <ele>2011</ele>
        <time>2022-06-25T17:32:19Z</time>
      </trkpt>
      <trkpt lat="42.55418" lon="2.01009">
        <ele>2017</ele>
        <time>2022-06-25T17:32:40Z</time>
      </trkpt>
      <trkpt lat="42.55359" lon="2.01045">
        <ele>2026</ele>
        <time>2022-06-25T17:33:12Z</time>
      </trkpt>
      <trkpt lat="42.55307" lon="2.01121">
        <ele>2038</ele>
        <time>2022-06-25T17:33:51Z</time>
      </trkpt>
      <trkpt lat="42.55284" lon="2.01351">
        <ele>2045</ele>
        <time>2022-06-25T17:35:16Z</time>
      </trkpt>
      <trkpt lat="42.55247" lon="2.01438">
        <ele>2030</ele>
        <time>2022-06-25T17:35:53Z</time>
      </trkpt>
      <trkpt lat="42.55156" lon="2.01519">
        <ele>2023</ele>
        <time>2022-06-25T17:36:48Z</time>
      </trkpt>
      <trkpt lat="42.55107" lon="2.01795">
        <ele>2016</ele>
        <time>2022-06-25T17:38:32Z</time>
      </trkpt>
      <trkpt lat="42.55053" lon="2.01864">
        <ele>2001</ele>
        <time>2022-06-25T17:39:09Z</time>
      </trkpt>
      <trkpt lat="42.54935" lon="2.01749">
        <ele>1996</ele>
        <time>2022-06-25T17:40:22Z</time>
      </trkpt>
      <trkpt lat="42.54914" lon="2.01813">
        <ele>1973</ele>
        <time>2022-06-25T17:40:48Z</time>
      </trkpt>
      <trkpt lat="42.54886" lon="2.01877">
        <ele>1956</ele>
        <time>2022-06-25T17:41:15Z</time>
      </trkpt>
      <trkpt lat="42.54844" lon="2.01925">
        <ele>1945</ele>
        <time>2022-06-25T17:41:43Z</time>
      </trkpt>
      <trkpt lat="42.54794" lon="2.01902">
        <ele>1947</ele>
        <time>2022-06-25T17:42:09Z</time>
      </trkpt>
      <trkpt lat="42.54762" lon="2.01933">
        <ele>1946</ele>
        <time>2022-06-25T17:42:29Z</time>
      </trkpt>
      <trkpt lat="42.54715" lon="2.01958">
        <ele>1949</ele>
        <time>2022-06-25T17:42:54Z</time>
      </trkpt>
      <trkpt lat="42.54677" lon="2.0203">
        <ele>1950</ele>
        <time>2022-06-25T17:43:27Z</time>
      </trkpt>
      <trkpt lat="42.54572" lon="2.01982">
        <ele>1969</ele>
        <time>2022-06-25T17:44:22Z</time>
      </trkpt>
      <trkpt lat="42.54591" lon="2.0181">
        <ele>1972</ele>
        <time>2022-06-25T17:45:26Z</time>
      </trkpt>
      <trkpt lat="42.54523" lon="2.0169">
        <ele>1973</ele>
        <time>2022-06-25T17:46:22Z</time>
      </trkpt>
      <trkpt lat="42.54465" lon="2.01381">
        <ele>1969</ele>
        <time>2022-06-25T17:48:20Z</time>
      </trkpt>
      <trkpt lat="42.5443" lon="2.01325">
        <ele>1971</ele>
        <time>2022-06-25T17:48:47Z</time>
      </trkpt>
      <trkpt lat="42.54355" lon="2.01367">
        <ele>1981</ele>
        <time>2022-06-25T17:49:27Z</time>
      </trkpt>
      <trkpt lat="42.54288" lon="2.01601">
        <ele>1958</ele>
        <time>2022-06-25T17:51:00Z</time>
      </trkpt>
      <trkpt lat="42.54305" lon="2.01803">
        <ele>1931</ele>
        <time>2022-06-25T17:52:15Z</time>
      </trkpt>
      <trkpt lat="42.54224" lon="2.02121">
        <ele>1913</ele>
        <time>2022-06-25T17:54:19Z</time>
      </trkpt>
      <trkpt lat="42.54137" lon="2.02303">
        <ele>1897</ele>
        <time>2022-06-25T17:55:39Z</time>
      </trkpt>
      <trkpt lat="42.54019" lon="2.02423">
        <ele>1915</ele>
        <time>2022-06-25T17:56:53Z</time>
      </trkpt>
      <trkpt lat="42.53983" lon="2.0265">
        <ele>1913</ele>
        <time>2022-06-25T17:58:18Z</time>
      </trkpt>
      <trkpt lat="42.53949" lon="2.0277">
        <ele>1919</ele>
        <time>2022-06-25T17:59:06Z</time>
      </trkpt>
      <trkpt lat="42.53912" lon="2.02844">
        <ele>1933</ele>
        <time>2022-06-25T17:59:39Z</time>
      </trkpt>
      <trkpt lat="42.5384" lon="2.03183">
        <ele>1968</ele>
        <time>2022-06-25T18:01:49Z</time>
      </trkpt>
      <trkpt lat="42.53724" lon="2.03305">
        <ele>1986</ele>
        <time>2022-06-25T18:03:02Z</time>
      </trkpt>
      <trkpt lat="42.53634" lon="2.03502">
        <ele>2010</ele>
        <time>2022-06-25T18:04:28Z</time>
      </trkpt>
      <trkpt lat="42.53635" lon="2.03584">
        <ele>2003</ele>
        <time>2022-06-25T18:04:58Z</time>
      </trkpt>
      <trkpt lat="42.53528" lon="2.03841">
        <ele>2019</ele>
        <time>2022-06-25T18:06:47Z</time>
      </trkpt>
      <trkpt lat="42.5343" lon="2.0426">
        <ele>2001</ele>
        <time>2022-06-25T18:09:29Z</time>
      </trkpt>
      <trkpt lat="42.53342" lon="2.04326">
        <ele>2002</ele>
        <time>2022-06-25T18:10:19Z</time>
      </trkpt>
      <trkpt lat="42.53288" lon="2.04319">
        <ele>2001</ele>
        <time>2022-06-25T18:10:46Z</time>
      </trkpt>
      <trkpt lat="42.53086" lon="2.04421">
        <ele>1978</ele>
        <time>2022-06-25T18:12:34Z</time>
      </trkpt>
      <trkpt lat="42.53015" lon="2.04393">
        <ele>1973</ele>
        <time>2022-06-25T18:13:11Z</time>
      </trkpt>
      <trkpt lat="42.52832" lon="2.04689">
        <ele>1952</ele>
        <time>2022-06-25T18:15:34Z</time>
      </trkpt>
      <trkpt lat="42.52744" lon="2.04686">
        <ele>1947</ele>
        <time>2022-06-25T18:16:18Z</time>
      </trkpt>
      <trkpt lat="42.52426" lon="2.04393">
        <ele>1932</ele>
        <time>2022-06-25T18:19:30Z</time>
      </trkpt>
      <trkpt lat="42.52328" lon="2.04232">
        <ele>1929</ele>
        <time>2022-06-25T18:20:47Z</time>
      </trkpt>
      <trkpt lat="42.52178" lon="2.0425">
        <ele>1917</ele>
        <time>2022-06-25T18:22:03Z</time>
      </trkpt>
      <trkpt lat="42.5205" lon="2.04268">
        <ele>1914</ele>
        <time>2022-06-25T18:23:07Z</time>
      </trkpt>
      <trkpt lat="42.51821" lon="2.04326">
        <ele>1903</ele>
        <time>2022-06-25T18:25:04Z</time>
      </trkpt>
      <trkpt lat="42.51689" lon="2.04512">
        <ele>1882</ele>
        <time>2022-06-25T18:26:39Z</time>
      </trkpt>
      <trkpt lat="42.51663" lon="2.0453">
        <ele>1879</ele>
        <time>2022-06-25T18:26:53Z</time>
      </trkpt>
      <trkpt lat="42.5164" lon="2.0452">
        <ele>1876</ele>
        <time>2022-06-25T18:27:05Z</time>
      </trkpt>
      <trkpt lat="42.51499" lon="2.04548">
        <ele>1856</ele>
        <time>2022-06-25T18:28:17Z</time>
      </trkpt>
      <trkpt lat="42.51358" lon="2.0449">
        <ele>1839</ele>
        <time>2022-06-25T18:29:31Z</time>
      </trkpt>
      <trkpt lat="42.51068" lon="2.04607">
        <ele>1828</ele>
        <time>2022-06-25T18:32:02Z</time>
      </trkpt>
      <trkpt lat="42.51007" lon="2.04666">
        <ele>1816</ele>
        <time>2022-06-25T18:32:39Z</time>
      </trkpt>
      <trkpt lat="42.50979" lon="2.04523">
        <ele>1828</ele>
        <time>2022-06-25T18:33:34Z</time>
      </trkpt>
      <trkpt lat="42.5092" lon="2.04433">
        <ele>1828</ele>
        <time>2022-06-25T18:34:18Z</time>
      </trkpt>
      <trkpt lat="42.50831" lon="2.04469">
        <ele>1812</ele>
        <time>2022-06-25T18:35:05Z</time>
      </trkpt>
      <trkpt lat="42.50711" lon="2.04342">
        <ele>1800</ele>
        <time>2022-06-25T18:36:21Z</time>
      </trkpt>
      <trkpt lat="42.50651" lon="2.04312">
        <ele>1791</ele>
        <time>2022-06-25T18:36:53Z</time>
      </trkpt>
      <trkpt lat="42.50662" lon="2.04147">
        <ele>1794</ele>
        <time>2022-06-25T18:37:54Z</time>
      </trkpt>
      <trkpt lat="42.50688" lon="2.04098">
        <ele>1791</ele>
        <time>2022-06-25T18:38:16Z</time>
      </trkpt>
      <trkpt lat="42.5068" lon="2.04035">
        <ele>1789</ele>
        <time>2022-06-25T18:38:40Z</time>
      </trkpt>
      <trkpt lat="42.50586" lon="2.04044">
        <ele>1776</ele>
        <time>2022-06-25T18:39:27Z</time>
      </trkpt>
      <trkpt lat="42.50565" lon="2.04017">
        <ele>1772</ele>
        <time>2022-06-25T18:39:42Z</time>
      </trkpt>
      <trkpt lat="42.50553" lon="2.04046">
        <ele>1769</ele>
        <time>2022-06-25T18:39:54Z</time>
      </trkpt>
      <trkpt lat="42.50533" lon="2.04075">
        <ele>1765</ele>
        <time>2022-06-25T18:40:09Z</time>
      </trkpt>
      <trkpt lat="42.50529" lon="2.0404">
        <ele>1765</ele>
        <time>2022-06-25T18:40:22Z</time>
      </trkpt>
      <trkpt lat="42.50497" lon="2.04048">
        <ele>1758</ele>
        <time>2022-06-25T18:40:38Z</time>
      </trkpt>
      <trkpt lat="42.5051" lon="2.04206">
        <ele>1758</ele>
        <time>2022-06-25T18:41:37Z</time>
      </trkpt>
    </trkseg>
  </trk>
</gpx>